Topel, Izmit Topel Airport (LTBQ)

NameIzmit Topel Airport
CityTopel
CountryTurkey
ICAOLTBQ
IATAKCO
Altitude55 m
CoordinatesGoogle Map
Live Air TrafficLiveATC.net
METARLTBQ 180050Z 00000KT CAVOK M04/M04 Q1021 NOSIG RMK RWY09 08005KT
2019-01-18 00:50:00 Wind: North (0°) 0 m/s - Visibility: > 10000 m - Weather: CAVOK - Temperature: -4 °C - Dew point: -4 °C - Humidity: 100% - Pressure: 1021 hPa
Statistics

The table below shows the detailed information of all flights to/from Topel, Izmit Topel Airport (LTBQ).